Skip to Main Content
SEARCH:
Location Air RH Dwp Precip Type Wind Speed Wind Gust Direction Pavement Temperature Date/Time
Hatem Bridge US 40 E/B 63 89 60 None - 12 mph E 68 - 68 9/30/2016 4:24:00 PM
I-270 AT I-370 61 95 60 None Calm Calm NE 63 - 65 9/30/2016 4:20:00 PM
I-270 AT MD-109 60 100 60 None Calm 5 mph N 62 - 64 9/30/2016 4:20:00 PM
I-495 AT American Legion Bridge 64 100 64 None 4 mph 9 mph NE 69 - 71 9/30/2016 4:20:00 PM
I-68 AT MD-219 52 100 52 None 20 mph 32 mph E 58 - 62 9/30/2016 4:20:00 PM
I-68 AT Savage Mt 51 100 51 None 7 mph 14 mph E 55 - 56 9/30/2016 4:20:00 PM
I-68 AT Sideling Hill 55 100 55 None Calm 7 mph NE 59 - 60 9/30/2016 4:20:00 PM
I-68 AT WV Line 56 95 55 None 6 mph 21 mph SE 60 - 62 9/30/2016 4:20:00 PM
I-695 AT I-83 60 100 60 None 7 mph 12 mph NE 62 - 65 9/30/2016 4:20:00 PM
I-70 AT Fred-Wash Co. 57 99 57 None Calm 5 mph SE - 9/30/2016 4:20:00 PM
I-70 AT I-695 60 100 60 None 6 mph 14 mph NE 138 - 63 9/30/2016 4:20:00 PM
I-70 AT I-81 59 99 59 None 6 mph 11 mph N 64 - 64 9/30/2016 4:20:00 PM
I-70 AT MD-27 58 100 58 None 5 mph 9 mph NE 61 - 63 9/30/2016 4:20:00 PM
I-70 AT MD-32 60 96 59 None Calm 11 mph NE 65 - 65 9/30/2016 4:20:00 PM
I-83 AT MD-137 60 100 60 None 4 mph 10 mph NE 63 - 63 9/30/2016 4:20:00 PM
I-895 AT I-95 - - - No Data Available - - No Data Available -
I-95 AT I-695 NE 63 88 60 None 8 mph 12 mph NE 64 - 68 9/30/2016 4:24:00 PM
I-95 AT Patuxent River 62 99 62 None 6 mph 16 mph NE 66 - 68 9/30/2016 4:20:00 PM
I-95 AT Tydings Bridge 64 84 59 None 5 mph 11 mph E 69 - 69 9/30/2016 4:20:00 PM
I-95/495 AT I-295 68 88 64 None 5 mph 13 mph NE 67 - 70 9/30/2016 4:20:00 PM
I-97 AT MD-100 62 98 62 None 9 mph 20 mph NE 65 - 65 9/30/2016 4:20:00 PM
I-97 AT MD-32 62 100 62 None 12 mph 20 mph NE 64 - 64 9/30/2016 4:20:00 PM
MD 231 at Patuxent River 68 95 66 None 14 mph 20 mph NE 70 - 71 9/30/2016 4:20:00 PM
MD-135 AT Salt Dome 50 100 50 None 7 mph 15 mph E 56 - 56 9/30/2016 4:20:00 PM
MD-140 AT MD-97 58 97 58 None 7 mph 14 mph E 61 - 61 9/30/2016 4:20:00 PM
MD-200 EB AT Bonifant Rd 61 97 61 None 4 mph 14 mph W 66 - 67 9/30/2016 4:24:00 PM
MD-200 WB AT Muncaster Mill Rd 61 94 59 None Calm 7 mph E 65 - 67 9/30/2016 4:24:00 PM
MD-213 AT Sassafras River 65 97 65 None Calm 14 mph NE 73 - 73 9/30/2016 4:20:00 PM
MD-24 AT Rock St Park 61 98 61 None Calm Calm W 62 - 62 9/30/2016 4:20:00 PM
MD-30 AT PA Line 57 100 57 None 7 mph 11 mph NE 60 - 60 9/30/2016 4:20:00 PM
MD-301 AT MD-305 66 87 62 None 12 mph 23 mph E 71 - 71 9/30/2016 4:20:00 PM
MD-33 AT Knapps Narrows Drawbridge 67 89 64 None 11 mph 26 mph E 76 - 76 9/30/2016 4:20:00 PM
MD-344 at MD-224 65 97 65 None Calm 6 mph NE 69 - 69 9/30/2016 4:20:00 PM
MD-4 AT Patuxent River 69 96 68 None - - No Data Available 71 - 74 9/30/2016 4:20:00 PM
MD-404 AT Choptank River 66 96 65 None 5 mph 14 mph NE 69 - 71 9/30/2016 4:20:00 PM
MD-43 AT MD-150 64 94 62 None 8 mph 15 mph E 64 - 67 9/30/2016 4:20:00 PM
MD-51 AT Oldtown Salt Dome 58 97 57 None 4 mph 8 mph E 62 - 62 9/30/2016 4:20:00 PM
US-1 AT Baltimore / Harford Co. Line 61 93 59 None Calm 5 mph SW 64 - 64 9/30/2016 4:20:00 PM
US-1 AT Conowingo Dam 63 96 62 None Calm 7 mph N 68 - 68 9/30/2016 4:20:00 PM
US-13 AT US-113 71 94 70 None 6 mph 15 mph NE 82 - 82 9/30/2016 4:20:00 PM
US-13 AT US-50 68 93 66 None 7 mph 16 mph E 74 - 88 9/30/2016 4:20:00 PM
US-15 AT MD-140 57 97 56 Rain Calm 6 mph N 58 - 58 9/30/2016 4:20:00 PM
US-301 AT MD-5 64 100 64 None 10 mph 15 mph N 65 - 69 9/30/2016 4:20:00 PM
US-301 AT Potomac 69 94 67 None 8 mph 22 mph E 75 - 77 9/30/2016 4:20:00 PM
US-340 AT MD-180 57 97 57 None 4 mph 12 mph NE 62 - 62 9/30/2016 4:20:00 PM
US-50 AT Choptank 67 98 67 None 6 mph 19 mph NE 74 - 76 9/30/2016 4:20:00 PM
US-50 AT I-95 - - - No Data Available - - No Data Available -
US-50 AT MD-2 64 100 64 None 4 mph 17 mph N 65 - 67 9/30/2016 4:20:00 PM
US-50 AT MD-331 69 92 67 None 8 mph 15 mph E 71 - 73 9/30/2016 4:20:00 PM
US-50 AT OC Drawbridge 70 100 70 None 12 mph 23 mph NE 76 - 76 9/30/2016 4:20:00 PM
US-50 AT Table Rock Rd 51 100 51 Rain 11 mph 20 mph E 57 - 57 9/30/2016 4:20:00 PM
US-50 Kent Narrow Bridge 67 95 66 None 8 mph 18 mph NE 68 - 71 9/30/2016 4:20:00 PM
WPL Pier 31 - - - None - - No Data Available 68 - 68 9/30/2016 4:24:00 PM
Location Air RH Dwp Precip Type Wind Speed Wind Gust Direction Pavement Temperature Date/Time